createdAt,value
2019-06-08T00:01:35.415Z,96.90
2019-06-08T00:04:04.806Z,96.80
2019-06-08T00:06:33.998Z,96.90
2019-06-08T00:09:03.667Z,97.00
2019-06-08T00:11:32.852Z,96.90
2019-06-08T00:14:02.230Z,96.60
2019-06-08T00:16:31.411Z,96.70
2019-06-08T00:19:00.570Z,96.50
2019-06-08T00:21:29.657Z,96.40
2019-06-08T00:23:58.757Z,96.70
2019-06-08T00:26:27.906Z,96.60
2019-06-08T00:28:56.938Z,96.40
2019-06-08T00:31:26.004Z,96.50
2019-06-08T00:33:55.077Z,97.00
2019-06-08T00:36:25.075Z,97.40
2019-06-08T00:38:54.387Z,97.20
2019-06-08T00:41:23.731Z,97.20
2019-06-08T00:43:53.009Z,97.10
2019-06-08T00:46:23.486Z,96.80
2019-06-08T00:48:52.819Z,97.00
2019-06-08T00:51:22.995Z,97.00
2019-06-08T00:53:52.322Z,96.70
2019-06-08T00:56:21.583Z,96.70
2019-06-08T00:58:50.751Z,96.70
2019-06-08T01:01:20.802Z,96.90
2019-06-08T01:03:50.700Z,96.80
2019-06-08T01:06:20.965Z,96.70
2019-06-08T01:08:50.354Z,96.20
2019-06-08T01:11:20.801Z,96.60
2019-06-08T01:13:50.329Z,96.30
2019-06-08T01:16:20.830Z,96.70
2019-06-08T01:18:50.102Z,96.30
2019-06-08T01:21:19.471Z,95.90
2019-06-08T01:23:48.551Z,95.90
2019-06-08T01:26:17.720Z,95.70
2019-06-08T01:28:46.815Z,95.40
2019-06-08T01:31:15.881Z,95.20
2019-06-08T01:33:44.917Z,95.50
2019-06-08T01:36:14.082Z,95.40
2019-06-08T01:38:43.159Z,95.50
2019-06-08T01:41:12.268Z,95.60
2019-06-08T01:43:41.419Z,95.00
2019-06-08T01:46:10.496Z,94.60
2019-06-08T01:48:39.714Z,94.70
2019-06-08T01:51:08.812Z,94.70
2019-06-08T01:53:38.007Z,95.20
2019-06-08T01:56:07.190Z,94.90
2019-06-08T01:58:36.394Z,94.70
2019-06-08T02:01:05.759Z,94.60
2019-06-08T02:03:35.000Z,94.50
2019-06-08T02:06:04.306Z,95.00
2019-06-08T02:08:34.638Z,94.90
2019-06-08T02:11:04.174Z,95.00
2019-06-08T02:13:33.357Z,95.50
2019-06-08T02:16:02.570Z,94.70
2019-06-08T02:18:41.791Z,94.70
2019-06-08T02:21:02.708Z,95.00
2019-06-08T02:23:33.085Z,95.50
2019-06-08T02:26:02.368Z,95.00
2019-06-08T02:28:31.603Z,95.20
2019-06-08T02:31:00.873Z,95.20
2019-06-08T02:33:30.344Z,95.40
2019-06-08T02:35:59.729Z,95.00
2019-06-08T02:38:29.886Z,95.20
2019-06-08T02:40:59.964Z,95.10
2019-06-08T02:43:29.104Z,95.50
2019-06-08T02:45:58.297Z,95.90
2019-06-08T02:48:29.296Z,96.10
2019-06-08T02:50:58.292Z,96.20
2019-06-08T02:53:46.580Z,96.70
2019-06-08T02:56:16.133Z,96.80
2019-06-08T02:58:45.823Z,96.70
2019-06-08T03:01:16.766Z,97.00
2019-06-08T03:03:48.027Z,97.30
2019-06-08T03:06:20.148Z,97.10
2019-06-08T03:08:50.720Z,97.00
2019-06-08T03:11:21.082Z,96.80
2019-06-08T03:13:51.853Z,96.90
2019-06-08T03:16:20.944Z,97.20
2019-06-08T03:18:50.065Z,97.30
2019-06-08T03:21:19.167Z,97.10
2019-06-08T03:23:48.360Z,96.90
2019-06-08T03:26:17.401Z,97.00
2019-06-08T03:28:46.584Z,96.90
2019-06-08T03:31:15.714Z,96.70
2019-06-08T03:33:53.346Z,96.80
2019-06-08T03:36:15.761Z,96.50
2019-06-08T03:38:44.946Z,96.90
2019-06-08T03:41:14.008Z,96.80
2019-06-08T03:43:43.104Z,96.60
2019-06-08T03:46:12.172Z,96.70
2019-06-08T03:48:42.192Z,96.80
2019-06-08T03:51:12.110Z,97.10
2019-06-08T03:53:42.671Z,97.00
2019-06-08T03:56:12.253Z,96.60
2019-06-08T03:58:42.601Z,96.90
2019-06-08T04:01:12.474Z,96.80
2019-06-08T04:03:41.781Z,96.40
2019-06-08T04:06:11.274Z,96.30
2019-06-08T04:08:42.336Z,96.60
2019-06-08T04:11:11.163Z,96.50
2019-06-08T04:13:41.876Z,96.10
2019-06-08T04:16:11.274Z,96.10
2019-06-08T04:18:42.021Z,96.40
2019-06-08T04:21:11.476Z,96.80
2019-06-08T04:23:42.578Z,96.30
2019-06-08T04:26:11.418Z,96.40
2019-06-08T04:28:40.639Z,96.20
2019-06-08T04:31:10.665Z,96.20
2019-06-08T04:33:40.221Z,96.70
2019-06-08T04:36:10.724Z,96.30
2019-06-08T04:38:41.189Z,96.40
2019-06-08T04:41:10.359Z,96.20
2019-06-08T04:43:40.533Z,96.50
2019-06-08T04:46:09.707Z,96.00
2019-06-08T04:48:43.092Z,96.00
2019-06-08T04:51:12.537Z,96.10
2019-06-08T04:53:43.173Z,96.20
2019-06-08T04:56:12.462Z,95.90
2019-06-08T04:58:42.222Z,96.00
2019-06-08T05:01:12.363Z,95.80
2019-06-08T05:03:43.313Z,96.20
2019-06-08T05:06:12.817Z,96.20
2019-06-08T05:08:43.095Z,96.40
2019-06-08T05:11:12.407Z,96.40
2019-06-08T05:13:43.190Z,96.50
2019-06-08T05:16:12.490Z,96.30
2019-06-08T05:18:43.035Z,96.40
2019-06-08T05:21:12.483Z,96.00
2019-06-08T05:23:43.310Z,96.30
2019-06-08T05:26:23.072Z,96.10
2019-06-08T05:28:52.300Z,96.10
2019-06-08T05:31:21.586Z,96.00
2019-06-08T05:33:50.818Z,95.90
2019-06-08T05:36:20.105Z,96.20
2019-06-08T05:38:50.010Z,96.10
2019-06-08T05:41:24.239Z,96.00
2019-06-08T05:43:53.958Z,96.20
2019-06-08T05:46:23.272Z,96.30
2019-06-08T05:48:52.831Z,96.30
2019-06-08T05:51:22.031Z,96.40
2019-06-08T05:53:51.120Z,96.40
2019-06-08T05:56:21.756Z,96.40
2019-06-08T05:58:51.355Z,96.50
2019-06-08T06:01:20.873Z,96.50
2019-06-08T06:04:07.029Z,96.60
2019-06-08T06:06:34.705Z,96.40
2019-06-08T06:09:06.635Z,96.10
2019-06-08T06:11:35.703Z,95.90
2019-06-08T06:14:08.777Z,95.90
2019-06-08T06:16:38.350Z,96.00
2019-06-08T06:19:07.775Z,95.90
2019-06-08T06:21:38.059Z,96.00
2019-06-08T06:24:07.306Z,96.00
2019-06-08T06:26:36.563Z,96.20
2019-06-08T06:29:05.674Z,96.30
2019-06-08T06:31:34.750Z,96.10
2019-06-08T06:34:03.799Z,95.60
2019-06-08T06:36:32.922Z,96.10
2019-06-08T06:39:02.218Z,96.30
2019-06-08T06:41:31.417Z,96.20
2019-06-08T06:44:00.628Z,96.20
2019-06-08T06:46:29.831Z,96.20
2019-06-08T06:49:03.029Z,96.20
2019-06-08T06:51:34.009Z,96.30
2019-06-08T06:54:03.168Z,95.90
2019-06-08T06:56:32.457Z,96.30
2019-06-08T06:59:01.742Z,96.30
2019-06-08T07:01:31.350Z,95.70
2019-06-08T07:04:01.864Z,95.70
2019-06-08T07:06:31.227Z,96.00
2019-06-08T07:09:00.643Z,96.00
2019-06-08T07:11:30.091Z,95.60
2019-06-08T07:13:59.259Z,95.80
2019-06-08T07:16:28.484Z,95.80
2019-06-08T07:18:58.809Z,95.70
2019-06-08T07:21:40.870Z,96.30
2019-06-08T07:24:00.251Z,96.20
2019-06-08T07:26:29.383Z,96.50
2019-06-08T07:28:58.985Z,97.00
2019-06-08T07:31:28.043Z,96.80
2019-06-08T07:33:57.472Z,96.50
2019-06-08T07:36:26.816Z,96.40
2019-06-08T07:38:55.994Z,96.30
2019-06-08T07:41:25.555Z,95.80
2019-06-08T07:43:54.884Z,96.10
2019-06-08T07:46:24.462Z,95.60
2019-06-08T07:48:54.407Z,95.50
2019-06-08T07:51:25.079Z,95.40
2019-06-08T07:53:55.627Z,95.80
2019-06-08T07:56:24.910Z,95.70
2019-06-08T07:58:55.004Z,95.70
2019-06-08T08:01:35.796Z,95.80
2019-06-08T08:03:56.297Z,96.00
2019-06-08T08:06:25.563Z,95.60
2019-06-08T08:08:54.946Z,95.50
2019-06-08T08:11:24.630Z,95.60
2019-06-08T08:13:54.853Z,95.30
2019-06-08T08:16:24.006Z,95.00
2019-06-08T08:18:53.431Z,94.90
2019-06-08T08:21:26.244Z,95.00
2019-06-08T08:23:53.678Z,94.80
2019-06-08T08:26:23.091Z,95.00
2019-06-08T08:28:59.681Z,95.60
2019-06-08T08:31:27.893Z,95.60
2019-06-08T08:34:03.060Z,95.70
2019-06-08T08:36:33.030Z,95.90
2019-06-08T08:39:02.337Z,95.90
2019-06-08T08:41:30.917Z,96.60
2019-06-08T08:44:02.852Z,96.70
2019-06-08T08:46:31.131Z,96.80
2019-06-08T08:49:09.068Z,97.00
2019-06-08T08:51:31.320Z,97.10
2019-06-08T08:54:04.788Z,96.90
2019-06-08T08:56:31.424Z,96.70
2019-06-08T08:59:01.638Z,96.70
2019-06-08T09:01:31.758Z,96.60
2019-06-08T09:04:03.744Z,96.70
2019-06-08T09:06:31.767Z,96.70
2019-06-08T09:09:02.455Z,97.00
2019-06-08T09:11:31.998Z,97.00
2019-06-08T09:14:05.178Z,97.30
2019-06-08T09:16:32.052Z,97.10
2019-06-08T09:19:04.243Z,97.50
2019-06-08T09:21:32.073Z,97.20
2019-06-08T09:24:03.823Z,97.40
2019-06-08T09:26:52.361Z,97.20
2019-06-08T09:29:22.345Z,97.30
2019-06-08T09:31:51.905Z,97.40
2019-06-08T09:34:21.085Z,97.20
2019-06-08T09:36:50.174Z,97.80
2019-06-08T09:39:19.422Z,97.60
2019-06-08T09:41:48.648Z,97.40
2019-06-08T09:44:18.585Z,97.60
2019-06-08T09:46:48.254Z,97.40
2019-06-08T09:49:18.748Z,97.90
2019-06-08T09:51:48.767Z,97.50
2019-06-08T09:54:18.610Z,98.20
2019-06-08T09:56:47.998Z,98.30
2019-06-08T09:59:18.751Z,98.90
2019-06-08T10:01:48.467Z,99.90
2019-06-08T10:04:17.678Z,99.90
2019-06-08T10:06:47.955Z,99.90
2019-06-08T10:09:18.633Z,99.90
2019-06-08T10:11:48.202Z,99.90
2019-06-08T10:14:18.795Z,99.90
2019-06-08T10:16:48.054Z,99.90
2019-06-08T10:19:18.639Z,99.90
2019-06-08T10:21:48.234Z,99.90
2019-06-08T10:24:17.701Z,99.90
2019-06-08T10:26:47.777Z,99.90
2019-06-08T10:29:18.418Z,99.90
2019-06-08T10:31:48.400Z,99.90
2019-06-08T10:34:17.809Z,99.90
2019-06-08T10:36:46.952Z,99.90
2019-06-08T10:39:16.076Z,99.90
2019-06-08T10:41:45.216Z,99.90
2019-06-08T10:44:14.634Z,99.90
2019-06-08T10:46:43.963Z,99.90
2019-06-08T10:49:14.249Z,99.90
2019-06-08T10:51:43.959Z,99.90
2019-06-08T10:54:13.031Z,99.30
2019-06-08T10:56:42.337Z,99.90
2019-06-08T10:59:12.378Z,99.90
2019-06-08T11:01:41.763Z,99.80
2019-06-08T11:04:10.995Z,99.90
2019-06-08T11:06:40.474Z,99.40
2019-06-08T11:09:13.209Z,99.90
2019-06-08T11:11:40.914Z,99.90
2019-06-08T11:14:12.773Z,99.90
2019-06-08T11:16:40.952Z,99.90
2019-06-08T11:19:12.904Z,99.50
2019-06-08T11:21:41.181Z,99.90
2019-06-08T11:24:21.521Z,99.70
2019-06-08T11:26:41.308Z,99.80
2019-06-08T11:29:13.637Z,99.90
2019-06-08T11:31:41.475Z,99.90
2019-06-08T11:34:10.905Z,99.90
2019-06-08T11:36:40.058Z,99.90
2019-06-08T11:39:12.320Z,99.70
2019-06-08T11:41:40.075Z,99.50
2019-06-08T11:44:13.609Z,99.90
2019-06-08T11:46:42.591Z,99.90
2019-06-08T11:49:14.712Z,99.80
2019-06-08T11:51:41.911Z,99.70
2019-06-08T11:54:27.108Z,97.90
2019-06-08T11:56:42.866Z,99.00
2019-06-08T11:59:14.460Z,98.80
2019-06-08T12:01:43.860Z,99.90
2019-06-08T12:04:12.890Z,98.70
2019-06-08T12:06:41.925Z,99.90
2019-06-08T12:09:12.750Z,99.40
2019-06-08T12:11:42.883Z,99.90
2019-06-08T12:14:14.044Z,99.90
2019-06-08T12:16:43.224Z,99.90
2019-06-08T12:19:15.769Z,99.90
2019-06-08T12:21:43.458Z,99.90
2019-06-08T12:24:12.563Z,99.90
2019-06-08T12:26:41.658Z,99.90
2019-06-08T12:29:12.869Z,99.90
2019-06-08T12:31:41.694Z,98.70
2019-06-08T12:34:11.321Z,98.30
2019-06-08T12:36:40.556Z,98.90
2019-06-08T12:39:10.117Z,99.00
2019-06-08T12:41:39.499Z,99.20
2019-06-08T12:44:10.415Z,96.80
2019-06-08T12:46:41.605Z,96.70
2019-06-08T12:49:12.589Z,94.80
2019-06-08T12:51:41.650Z,95.10
2019-06-08T12:54:12.695Z,94.10
2019-06-08T12:56:41.838Z,94.40
2019-06-08T12:59:14.567Z,93.40
2019-06-08T13:01:42.012Z,95.20
2019-06-08T13:04:11.514Z,95.70
2019-06-08T13:06:40.745Z,94.30
2019-06-08T13:09:11.616Z,94.70
2019-06-08T13:11:40.843Z,92.80
2019-06-08T13:14:11.459Z,93.70
2019-06-08T13:16:40.782Z,91.50
2019-06-08T13:19:11.126Z,92.90
2019-06-08T13:21:40.790Z,91.70
2019-06-08T13:24:11.290Z,92.20
2019-06-08T13:26:40.663Z,89.80
2019-06-08T13:29:11.012Z,91.00
2019-06-08T13:31:40.546Z,90.80
2019-06-08T13:34:11.051Z,90.40
2019-06-08T13:36:42.337Z,90.40
2019-06-08T13:39:11.600Z,90.00
2019-06-08T13:41:41.330Z,91.30
2019-06-08T13:44:11.509Z,90.60
2019-06-08T13:46:40.722Z,89.70
2019-06-08T13:49:10.106Z,90.50
2019-06-08T13:51:39.458Z,89.90
2019-06-08T13:54:08.736Z,88.90
2019-06-08T13:56:38.621Z,84.70
2019-06-08T13:59:08.175Z,86.80
2019-06-08T14:01:37.877Z,85.10
2019-06-08T14:04:09.020Z,86.20
2019-06-08T14:06:37.947Z,82.90
2019-06-08T14:09:08.287Z,85.40
2019-06-08T14:11:37.689Z,80.90
2019-06-08T14:14:08.526Z,82.30
2019-06-08T14:16:39.298Z,81.90
2019-06-08T14:19:08.646Z,82.20
2019-06-08T14:21:41.646Z,85.00
2019-06-08T14:24:08.678Z,82.50
2019-06-08T14:26:37.842Z,79.70
2019-06-08T14:29:08.278Z,80.40
2019-06-08T14:31:38.113Z,83.80
2019-06-08T14:34:10.027Z,83.30
2019-06-08T14:36:40.780Z,80.60
2019-06-08T14:39:11.036Z,79.70
2019-06-08T14:41:40.246Z,82.40
2019-06-08T14:44:09.447Z,84.20
2019-06-08T14:46:41.195Z,80.90
2019-06-08T14:49:09.971Z,76.70
2019-06-08T14:51:49.608Z,79.10
2019-06-08T14:54:23.564Z,77.00
2019-06-08T14:56:50.495Z,79.70
2019-06-08T14:59:21.432Z,78.90
2019-06-08T15:01:50.610Z,77.50
2019-06-08T15:04:24.946Z,79.60
2019-06-08T15:06:51.023Z,79.50
2019-06-08T15:09:21.346Z,76.50
2019-06-08T15:11:50.630Z,78.10
2019-06-08T15:14:19.728Z,78.50
2019-06-08T15:16:49.502Z,79.50
2019-06-08T15:19:20.117Z,79.90
2019-06-08T15:21:49.462Z,77.40
2019-06-08T15:24:18.883Z,79.30
2019-06-08T15:26:48.675Z,79.40
2019-06-08T15:29:18.395Z,77.00
2019-06-08T15:31:48.415Z,79.10
2019-06-08T15:34:18.003Z,81.10
2019-06-08T15:36:48.067Z,81.20
2019-06-08T15:39:18.072Z,81.00
2019-06-08T15:41:48.742Z,79.70
2019-06-08T15:44:21.433Z,79.80
2019-06-08T15:46:48.826Z,79.70
2019-06-08T15:49:19.099Z,79.00
2019-06-08T15:51:48.461Z,81.10
2019-06-08T15:54:17.573Z,81.10
2019-06-08T15:56:51.395Z,81.60
2019-06-08T15:59:17.519Z,83.70
2019-06-08T16:01:46.734Z,82.80
2019-06-08T16:04:15.734Z,79.20
2019-06-08T16:06:45.084Z,80.60
2019-06-08T16:09:14.172Z,81.30
2019-06-08T16:11:43.371Z,79.20
2019-06-08T16:14:12.598Z,79.70
2019-06-08T16:16:41.671Z,80.00
2019-06-08T16:19:10.953Z,81.00
2019-06-08T16:21:39.980Z,82.50
2019-06-08T16:24:09.313Z,82.30
2019-06-08T16:26:52.282Z,80.80
2019-06-08T16:29:09.519Z,81.30
2019-06-08T16:31:39.407Z,81.10
2019-06-08T16:34:08.712Z,83.70
2019-06-08T16:36:37.927Z,82.20
2019-06-08T16:39:08.214Z,80.70
2019-06-08T16:41:37.527Z,80.20
2019-06-08T16:44:07.451Z,83.30
2019-06-08T16:46:36.724Z,81.30
2019-06-08T16:49:06.132Z,81.00
2019-06-08T16:51:35.782Z,81.20
2019-06-08T16:54:05.130Z,81.20
2019-06-08T16:56:34.258Z,82.30
2019-06-08T16:59:03.511Z,82.00
2019-06-08T17:01:32.992Z,83.10
2019-06-08T17:04:02.293Z,84.10
2019-06-08T17:06:31.550Z,84.30
2019-06-08T17:09:00.643Z,82.20
2019-06-08T17:11:29.798Z,82.50
2019-06-08T17:13:58.967Z,83.80
2019-06-08T17:16:27.993Z,84.50
2019-06-08T17:18:57.199Z,84.00
2019-06-08T17:21:26.214Z,84.20
2019-06-08T17:23:55.622Z,85.50
2019-06-08T17:26:24.784Z,84.40
2019-06-08T17:28:54.067Z,83.90
2019-06-08T17:31:23.386Z,84.60
2019-06-08T17:33:52.481Z,84.90
2019-06-08T17:36:21.625Z,84.20
2019-06-08T17:38:50.996Z,84.40
2019-06-08T17:41:20.040Z,85.30
2019-06-08T17:43:49.450Z,84.60
2019-06-08T17:46:18.573Z,83.80
2019-06-08T17:48:47.940Z,84.60
2019-06-08T17:51:17.203Z,84.60
2019-06-08T17:53:46.489Z,85.20
2019-06-08T17:56:15.771Z,84.50
2019-06-08T17:58:44.918Z,83.50
2019-06-08T18:01:14.078Z,85.20
2019-06-08T18:03:44.615Z,85.80
2019-06-08T18:06:13.866Z,84.50
2019-06-08T18:08:48.029Z,84.30
2019-06-08T18:11:17.419Z,85.00
2019-06-08T18:13:48.411Z,83.70
2019-06-08T18:16:19.435Z,85.20
2019-06-08T18:18:48.735Z,84.00
2019-06-08T18:21:18.092Z,86.90
2019-06-08T18:23:48.170Z,86.70
2019-06-08T18:26:17.565Z,85.80
2019-06-08T18:28:48.530Z,86.00
2019-06-08T18:31:18.149Z,87.30
2019-06-08T18:33:50.174Z,86.40
2019-06-08T18:36:18.265Z,86.70
2019-06-08T18:38:48.579Z,88.50
2019-06-08T18:41:18.104Z,87.20
2019-06-08T18:43:49.573Z,87.00
2019-06-08T18:46:18.335Z,87.20
2019-06-08T18:48:49.335Z,88.70
2019-06-08T18:51:18.476Z,87.50
2019-06-08T18:54:06.732Z,87.60
2019-06-08T18:56:18.513Z,87.20
2019-06-08T18:58:52.883Z,89.30
2019-06-08T19:01:22.973Z,88.30
2019-06-08T19:03:52.453Z,88.30
2019-06-08T19:06:21.503Z,89.10
2019-06-08T19:08:52.715Z,88.40
2019-06-08T19:11:22.607Z,89.10
2019-06-08T19:13:52.605Z,89.30
2019-06-08T19:16:22.394Z,90.50
2019-06-08T19:18:52.802Z,89.60
2019-06-08T19:21:22.204Z,90.00
2019-06-08T19:23:51.387Z,89.60
2019-06-08T19:26:20.684Z,88.30
2019-06-08T19:28:53.746Z,90.20
2019-06-08T19:31:20.530Z,90.00
2019-06-08T19:33:53.374Z,90.40
2019-06-08T19:36:20.677Z,90.40
2019-06-08T19:38:54.431Z,90.90
2019-06-08T19:41:20.897Z,90.80
2019-06-08T19:43:54.052Z,90.20
2019-06-08T19:46:20.983Z,90.20
2019-06-08T19:48:54.956Z,90.80
2019-06-08T19:51:21.146Z,90.90
2019-06-08T19:53:52.980Z,90.50
2019-06-08T19:56:21.529Z,90.10
2019-06-08T19:59:00.748Z,91.00
2019-06-08T20:01:21.611Z,91.10
2019-06-08T20:03:50.666Z,91.00
2019-06-08T20:06:20.255Z,90.70
2019-06-08T20:08:51.232Z,90.30
2019-06-08T20:11:20.618Z,90.80
2019-06-08T20:13:50.521Z,90.40
2019-06-08T20:18:58.833Z,90.80
2019-06-08T20:21:28.024Z,91.00
2019-06-08T20:23:58.502Z,91.20
2019-06-08T20:26:28.535Z,91.50
2019-06-08T20:29:12.029Z,91.60
2019-06-08T20:31:28.759Z,91.10
2019-06-08T20:33:58.057Z,91.20
2019-06-08T20:36:28.875Z,91.10
2019-06-08T20:38:58.498Z,91.50
2019-06-08T20:41:27.871Z,91.60
2019-06-08T20:43:57.992Z,91.40
2019-06-08T20:46:28.726Z,91.10
2019-06-08T20:48:58.385Z,91.00
2019-06-08T20:51:27.941Z,91.30
2019-06-08T20:53:57.399Z,91.30
2019-06-08T20:56:28.087Z,91.30
2019-06-08T20:58:57.574Z,91.70
2019-06-08T21:01:26.881Z,91.20
2019-06-08T21:03:57.160Z,91.10
2019-06-08T21:06:27.986Z,91.50
2019-06-08T21:08:57.994Z,91.70
2019-06-08T21:11:28.042Z,91.10
2019-06-08T21:13:57.191Z,91.70
2019-06-08T21:16:27.650Z,91.80
2019-06-08T21:18:58.005Z,91.50
2019-06-08T21:21:28.373Z,91.60
2019-06-08T21:24:01.129Z,91.80
2019-06-08T21:26:28.730Z,91.60
2019-06-08T21:29:00.342Z,91.90
2019-06-08T21:31:28.941Z,91.80
2019-06-08T21:34:00.717Z,92.50
2019-06-08T21:36:28.923Z,92.20
2019-06-08T21:39:02.228Z,91.80
2019-06-08T21:41:28.980Z,92.10
2019-06-08T21:44:01.888Z,92.30
2019-06-08T21:46:29.129Z,92.30
2019-06-08T21:49:00.292Z,92.80
2019-06-08T21:51:29.120Z,92.60
2019-06-08T21:53:59.255Z,92.60
2019-06-08T21:56:29.275Z,92.70
2019-06-08T21:59:00.935Z,93.00
2019-06-08T22:01:31.936Z,92.90
2019-06-08T22:04:02.252Z,92.90
2019-06-08T22:06:31.608Z,92.70
2019-06-08T22:09:01.254Z,93.00
2019-06-08T22:11:31.667Z,93.10
2019-06-08T22:14:00.999Z,92.90
2019-06-08T22:16:30.056Z,93.00
2019-06-08T22:19:00.861Z,93.20
2019-06-08T22:21:30.104Z,92.90
2019-06-08T22:24:00.622Z,93.10
2019-06-08T22:26:30.277Z,93.00
2019-06-08T22:29:00.999Z,93.70
2019-06-08T22:31:30.360Z,93.20
2019-06-08T22:34:02.095Z,93.00
2019-06-08T22:36:30.615Z,93.10
2019-06-08T22:39:00.985Z,93.60
2019-06-08T22:41:30.631Z,93.10
2019-06-08T22:44:00.939Z,93.30
2019-06-08T22:46:30.298Z,93.60
2019-06-08T22:49:01.985Z,93.60
2019-06-08T22:51:30.199Z,93.70
2019-06-08T22:54:00.756Z,93.50
2019-06-08T22:56:30.937Z,93.70
2019-06-08T22:59:05.586Z,93.60
2019-06-08T23:01:32.667Z,93.40
2019-06-08T23:04:03.916Z,93.50
2019-06-08T23:06:32.770Z,93.50
2019-06-08T23:09:03.819Z,93.50
2019-06-08T23:11:32.991Z,93.80
2019-06-08T23:14:04.099Z,93.60
2019-06-08T23:16:32.855Z,93.60
2019-06-08T23:19:03.178Z,93.70
2019-06-08T23:21:32.427Z,93.90
2019-06-08T23:24:02.873Z,93.90
2019-06-08T23:26:32.531Z,94.00
2019-06-08T23:29:02.356Z,94.10
2019-06-08T23:31:31.382Z,94.00
2019-06-08T23:34:03.903Z,94.20
2019-06-08T23:36:46.747Z,94.40
2019-06-08T23:39:03.136Z,94.30
2019-06-08T23:41:32.307Z,94.30
2019-06-08T23:44:01.500Z,94.50
2019-06-08T23:46:31.018Z,94.50
2019-06-08T23:49:01.952Z,94.60
2019-06-08T23:51:31.223Z,94.70
2019-06-08T23:54:02.317Z,94.80
2019-06-08T23:56:31.162Z,95.00
2019-06-08T23:59:01.320Z,95.10
